sensor_id;sensor_type;location;lat;lon;timestamp;P1;durP1;ratioP1;P2;durP2;ratioP2
12482;SDS011;6306;47.134;15.344;2022-11-03T00:02:20;5.40;;;3.00;;
12482;SDS011;6306;47.134;15.344;2022-11-03T00:04:46;3.70;;;2.53;;
12482;SDS011;6306;47.134;15.344;2022-11-03T00:07:12;5.10;;;3.20;;
12482;SDS011;6306;47.134;15.344;2022-11-03T00:09:44;5.37;;;2.50;;
12482;SDS011;6306;47.134;15.344;2022-11-03T00:12:10;3.77;;;3.47;;
12482;SDS011;6306;47.134;15.344;2022-11-03T00:14:36;4.13;;;2.70;;
12482;SDS011;6306;47.134;15.344;2022-11-03T00:17:02;3.90;;;2.60;;
12482;SDS011;6306;47.134;15.344;2022-11-03T00:19:28;4.93;;;3.13;;
12482;SDS011;6306;47.134;15.344;2022-11-03T00:21:54;4.43;;;3.83;;
12482;SDS011;6306;47.134;15.344;2022-11-03T00:24:22;8.40;;;3.83;;
12482;SDS011;6306;47.134;15.344;2022-11-03T00:26:48;5.77;;;4.13;;
12482;SDS011;6306;47.134;15.344;2022-11-03T00:29:14;4.70;;;3.10;;
12482;SDS011;6306;47.134;15.344;2022-11-03T00:31:41;3.93;;;3.30;;
12482;SDS011;6306;47.134;15.344;2022-11-03T00:34:08;8.20;;;4.00;;
12482;SDS011;6306;47.134;15.344;2022-11-03T00:36:35;3.80;;;3.33;;
12482;SDS011;6306;47.134;15.344;2022-11-03T00:39:02;9.80;;;3.50;;
12482;SDS011;6306;47.134;15.344;2022-11-03T00:41:28;4.30;;;3.17;;
12482;SDS011;6306;47.134;15.344;2022-11-03T00:43:54;5.13;;;3.80;;
12482;SDS011;6306;47.134;15.344;2022-11-03T00:46:21;4.03;;;3.63;;
12482;SDS011;6306;47.134;15.344;2022-11-03T00:48:48;4.23;;;3.37;;
12482;SDS011;6306;47.134;15.344;2022-11-03T00:51:16;4.90;;;3.27;;
12482;SDS011;6306;47.134;15.344;2022-11-03T00:53:46;5.80;;;3.23;;
12482;SDS011;6306;47.134;15.344;2022-11-03T00:56:13;5.40;;;3.80;;
12482;SDS011;6306;47.134;15.344;2022-11-03T00:58:40;4.27;;;2.80;;
12482;SDS011;6306;47.134;15.344;2022-11-03T01:01:16;3.50;;;3.20;;
12482;SDS011;6306;47.134;15.344;2022-11-03T01:03:43;7.97;;;3.80;;
12482;SDS011;6306;47.134;15.344;2022-11-03T01:06:30;4.40;;;2.90;;
12482;SDS011;6306;47.134;15.344;2022-11-03T01:09:15;4.90;;;3.40;;
12482;SDS011;6306;47.134;15.344;2022-11-03T01:11:41;3.43;;;3.13;;
12482;SDS011;6306;47.134;15.344;2022-11-03T01:14:13;3.90;;;3.33;;
12482;SDS011;6306;47.134;15.344;2022-11-03T01:16:39;3.37;;;2.90;;
12482;SDS011;6306;47.134;15.344;2022-11-03T01:19:05;4.37;;;3.20;;
12482;SDS011;6306;47.134;15.344;2022-11-03T01:21:32;8.03;;;3.67;;
12482;SDS011;6306;47.134;15.344;2022-11-03T01:24:01;4.27;;;3.53;;
12482;SDS011;6306;47.134;15.344;2022-11-03T01:26:27;3.70;;;3.20;;
12482;SDS011;6306;47.134;15.344;2022-11-03T01:28:53;5.43;;;3.73;;
12482;SDS011;6306;47.134;15.344;2022-11-03T01:31:20;4.73;;;3.23;;
12482;SDS011;6306;47.134;15.344;2022-11-03T01:33:48;3.13;;;2.83;;
12482;SDS011;6306;47.134;15.344;2022-11-03T01:36:15;5.30;;;3.87;;
12482;SDS011;6306;47.134;15.344;2022-11-03T01:38:41;8.63;;;3.50;;
12482;SDS011;6306;47.134;15.344;2022-11-03T01:41:09;3.83;;;3.20;;
12482;SDS011;6306;47.134;15.344;2022-11-03T01:43:38;3.57;;;3.07;;
12482;SDS011;6306;47.134;15.344;2022-11-03T01:48:33;7.00;;;3.93;;
12482;SDS011;6306;47.134;15.344;2022-11-03T01:51:00;3.53;;;3.03;;
12482;SDS011;6306;47.134;15.344;2022-11-03T01:53:26;6.23;;;3.80;;
12482;SDS011;6306;47.134;15.344;2022-11-03T01:55:53;7.13;;;4.60;;
12482;SDS011;6306;47.134;15.344;2022-11-03T01:58:20;7.90;;;3.17;;
12482;SDS011;6306;47.134;15.344;2022-11-03T02:00:47;3.93;;;3.40;;
12482;SDS011;6306;47.134;15.344;2022-11-03T02:03:15;3.63;;;3.33;;
12482;SDS011;6306;47.134;15.344;2022-11-03T02:05:42;4.93;;;3.53;;
12482;SDS011;6306;47.134;15.344;2022-11-03T02:08:15;4.90;;;3.73;;
12482;SDS011;6306;47.134;15.344;2022-11-03T02:10:41;4.70;;;3.23;;
12482;SDS011;6306;47.134;15.344;2022-11-03T02:13:28;6.47;;;3.67;;
12482;SDS011;6306;47.134;15.344;2022-11-03T02:15:56;4.07;;;3.57;;
12482;SDS011;6306;47.134;15.344;2022-11-03T02:18:24;3.93;;;3.20;;
12482;SDS011;6306;47.134;15.344;2022-11-03T02:24:00;3.90;;;3.30;;
12482;SDS011;6306;47.134;15.344;2022-11-03T02:26:23;5.10;;;4.60;;
12482;SDS011;6306;47.134;15.344;2022-11-03T02:28:50;5.43;;;4.30;;
12482;SDS011;6306;47.134;15.344;2022-11-03T02:36:26;10.07;;;5.70;;
12482;SDS011;6306;47.134;15.344;2022-11-03T02:39:11;7.40;;;5.40;;
12482;SDS011;6306;47.134;15.344;2022-11-03T02:41:38;6.30;;;5.57;;
12482;SDS011;6306;47.134;15.344;2022-11-03T02:44:05;8.10;;;5.80;;
12482;SDS011;6306;47.134;15.344;2022-11-03T02:46:32;7.23;;;5.00;;
12482;SDS011;6306;47.134;15.344;2022-11-03T02:48:59;7.30;;;5.63;;
12482;SDS011;6306;47.134;15.344;2022-11-03T02:51:25;7.10;;;4.53;;
12482;SDS011;6306;47.134;15.344;2022-11-03T02:56:20;6.87;;;6.00;;
12482;SDS011;6306;47.134;15.344;2022-11-03T02:58:53;7.30;;;5.80;;
12482;SDS011;6306;47.134;15.344;2022-11-03T03:01:27;10.53;;;6.07;;
12482;SDS011;6306;47.134;15.344;2022-11-03T03:04:02;8.23;;;6.10;;
12482;SDS011;6306;47.134;15.344;2022-11-03T03:08:58;11.03;;;6.23;;
12482;SDS011;6306;47.134;15.344;2022-11-03T03:11:25;11.13;;;5.47;;
12482;SDS011;6306;47.134;15.344;2022-11-03T03:14:07;9.33;;;6.23;;
12482;SDS011;6306;47.134;15.344;2022-11-03T03:16:34;8.47;;;5.83;;
12482;SDS011;6306;47.134;15.344;2022-11-03T03:19:13;9.73;;;6.80;;
12482;SDS011;6306;47.134;15.344;2022-11-03T03:21:42;9.20;;;5.97;;
12482;SDS011;6306;47.134;15.344;2022-11-03T03:24:13;7.70;;;6.10;;
12482;SDS011;6306;47.134;15.344;2022-11-03T03:26:41;7.97;;;6.10;;
12482;SDS011;6306;47.134;15.344;2022-11-03T03:29:13;7.70;;;5.20;;
12482;SDS011;6306;47.134;15.344;2022-11-03T03:31:41;9.50;;;5.70;;
12482;SDS011;6306;47.134;15.344;2022-11-03T03:34:08;7.70;;;6.50;;
12482;SDS011;6306;47.134;15.344;2022-11-03T03:36:35;14.00;;;5.47;;
12482;SDS011;6306;47.134;15.344;2022-11-03T03:39:04;8.10;;;6.50;;
12482;SDS011;6306;47.134;15.344;2022-11-03T03:41:31;10.80;;;5.50;;
12482;SDS011;6306;47.134;15.344;2022-11-03T03:43:59;7.43;;;5.63;;
12482;SDS011;6306;47.134;15.344;2022-11-03T03:46:37;7.67;;;6.20;;
12482;SDS011;6306;47.134;15.344;2022-11-03T03:49:05;8.20;;;6.53;;
12482;SDS011;6306;47.134;15.344;2022-11-03T03:51:31;6.97;;;5.23;;
12482;SDS011;6306;47.134;15.344;2022-11-03T03:53:58;8.40;;;6.17;;
12482;SDS011;6306;47.134;15.344;2022-11-03T03:56:58;8.20;;;6.40;;
12482;SDS011;6306;47.134;15.344;2022-11-03T03:59:16;8.50;;;6.13;;
12482;SDS011;6306;47.134;15.344;2022-11-03T04:01:42;9.17;;;6.63;;
12482;SDS011;6306;47.134;15.344;2022-11-03T04:04:08;7.33;;;6.60;;
12482;SDS011;6306;47.134;15.344;2022-11-03T04:06:34;11.27;;;7.37;;
12482;SDS011;6306;47.134;15.344;2022-11-03T04:09:00;10.50;;;6.30;;
12482;SDS011;6306;47.134;15.344;2022-11-03T04:11:26;11.03;;;6.10;;
12482;SDS011;6306;47.134;15.344;2022-11-03T04:14:11;10.43;;;5.60;;
12482;SDS011;6306;47.134;15.344;2022-11-03T04:16:56;6.60;;;5.63;;
12482;SDS011;6306;47.134;15.344;2022-11-03T04:19:40;7.93;;;6.30;;
12482;SDS011;6306;47.134;15.344;2022-11-03T04:22:27;10.20;;;6.00;;
12482;SDS011;6306;47.134;15.344;2022-11-03T04:24:53;8.17;;;5.93;;
12482;SDS011;6306;47.134;15.344;2022-11-03T04:27:24;9.23;;;6.40;;
12482;SDS011;6306;47.134;15.344;2022-11-03T04:29:51;8.10;;;6.20;;
12482;SDS011;6306;47.134;15.344;2022-11-03T04:32:17;12.33;;;5.90;;
12482;SDS011;6306;47.134;15.344;2022-11-03T04:34:44;8.73;;;5.90;;
12482;SDS011;6306;47.134;15.344;2022-11-03T04:37:11;6.60;;;5.97;;
12482;SDS011;6306;47.134;15.344;2022-11-03T04:39:37;7.50;;;5.57;;
12482;SDS011;6306;47.134;15.344;2022-11-03T04:42:14;7.57;;;5.37;;
12482;SDS011;6306;47.134;15.344;2022-11-03T04:44:41;8.90;;;5.77;;
12482;SDS011;6306;47.134;15.344;2022-11-03T04:47:08;9.63;;;6.77;;
12482;SDS011;6306;47.134;15.344;2022-11-03T04:49:35;8.40;;;5.80;;
12482;SDS011;6306;47.134;15.344;2022-11-03T04:52:01;9.70;;;5.53;;
12482;SDS011;6306;47.134;15.344;2022-11-03T04:54:28;8.80;;;5.63;;
12482;SDS011;6306;47.134;15.344;2022-11-03T04:56:54;9.27;;;5.40;;
12482;SDS011;6306;47.134;15.344;2022-11-03T04:59:20;8.57;;;6.57;;
12482;SDS011;6306;47.134;15.344;2022-11-03T05:01:46;12.00;;;6.53;;
12482;SDS011;6306;47.134;15.344;2022-11-03T05:04:16;9.87;;;6.70;;
12482;SDS011;6306;47.134;15.344;2022-11-03T05:06:51;11.30;;;6.90;;
12482;SDS011;6306;47.134;15.344;2022-11-03T05:09:28;6.53;;;5.73;;
12482;SDS011;6306;47.134;15.344;2022-11-03T05:11:55;9.23;;;7.10;;
12482;SDS011;6306;47.134;15.344;2022-11-03T05:14:30;9.10;;;6.03;;
12482;SDS011;6306;47.134;15.344;2022-11-03T05:16:56;7.80;;;6.80;;
12482;SDS011;6306;47.134;15.344;2022-11-03T05:19:23;10.63;;;6.90;;
12482;SDS011;6306;47.134;15.344;2022-11-03T05:21:52;10.70;;;7.40;;
12482;SDS011;6306;47.134;15.344;2022-11-03T05:24:19;9.90;;;6.30;;
12482;SDS011;6306;47.134;15.344;2022-11-03T05:26:49;10.17;;;7.23;;
12482;SDS011;6306;47.134;15.344;2022-11-03T05:29:20;11.70;;;6.47;;
12482;SDS011;6306;47.134;15.344;2022-11-03T05:31:47;8.30;;;6.90;;
12482;SDS011;6306;47.134;15.344;2022-11-03T05:36:49;13.73;;;6.30;;
12482;SDS011;6306;47.134;15.344;2022-11-03T05:39:28;8.73;;;6.10;;
12482;SDS011;6306;47.134;15.344;2022-11-03T05:41:56;10.00;;;6.93;;
12482;SDS011;6306;47.134;15.344;2022-11-03T05:46:51;11.57;;;7.80;;
12482;SDS011;6306;47.134;15.344;2022-11-03T05:49:17;10.30;;;7.13;;
12482;SDS011;6306;47.134;15.344;2022-11-03T05:51:44;8.63;;;6.40;;
12482;SDS011;6306;47.134;15.344;2022-11-03T05:54:14;6.73;;;5.40;;
12482;SDS011;6306;47.134;15.344;2022-11-03T05:56:43;16.30;;;7.50;;
12482;SDS011;6306;47.134;15.344;2022-11-03T05:59:09;11.27;;;6.60;;
12482;SDS011;6306;47.134;15.344;2022-11-03T06:01:36;9.00;;;6.47;;
12482;SDS011;6306;47.134;15.344;2022-11-03T06:04:11;9.43;;;6.53;;
12482;SDS011;6306;47.134;15.344;2022-11-03T06:06:39;10.80;;;6.43;;
12482;SDS011;6306;47.134;15.344;2022-11-03T06:09:09;8.53;;;6.17;;
12482;SDS011;6306;47.134;15.344;2022-11-03T06:11:36;8.33;;;6.70;;
12482;SDS011;6306;47.134;15.344;2022-11-03T06:14:08;11.37;;;7.43;;
12482;SDS011;6306;47.134;15.344;2022-11-03T06:16:41;9.00;;;6.30;;
12482;SDS011;6306;47.134;15.344;2022-11-03T06:19:28;9.93;;;7.07;;
12482;SDS011;6306;47.134;15.344;2022-11-03T06:22:00;13.83;;;6.53;;
12482;SDS011;6306;47.134;15.344;2022-11-03T06:24:30;9.30;;;5.47;;
12482;SDS011;6306;47.134;15.344;2022-11-03T06:26:57;9.33;;;6.53;;
12482;SDS011;6306;47.134;15.344;2022-11-03T06:29:23;9.40;;;6.60;;
12482;SDS011;6306;47.134;15.344;2022-11-03T06:31:49;16.17;;;6.00;;
12482;SDS011;6306;47.134;15.344;2022-11-03T06:34:20;12.57;;;6.57;;
12482;SDS011;6306;47.134;15.344;2022-11-03T06:36:47;12.73;;;6.63;;
12482;SDS011;6306;47.134;15.344;2022-11-03T06:39:18;10.97;;;6.23;;
12482;SDS011;6306;47.134;15.344;2022-11-03T06:41:45;11.50;;;6.40;;
12482;SDS011;6306;47.134;15.344;2022-11-03T06:44:18;8.80;;;6.60;;
12482;SDS011;6306;47.134;15.344;2022-11-03T06:46:44;7.70;;;6.90;;
12482;SDS011;6306;47.134;15.344;2022-11-03T06:49:24;13.33;;;7.00;;
12482;SDS011;6306;47.134;15.344;2022-11-03T06:51:52;9.23;;;6.63;;
12482;SDS011;6306;47.134;15.344;2022-11-03T06:54:18;8.90;;;6.40;;
12482;SDS011;6306;47.134;15.344;2022-11-03T06:56:44;10.87;;;7.80;;
12482;SDS011;6306;47.134;15.344;2022-11-03T06:59:10;13.57;;;6.80;;
12482;SDS011;6306;47.134;15.344;2022-11-03T07:01:38;13.20;;;7.10;;
12482;SDS011;6306;47.134;15.344;2022-11-03T07:04:13;9.03;;;6.00;;
12482;SDS011;6306;47.134;15.344;2022-11-03T07:06:41;10.67;;;6.70;;
12482;SDS011;6306;47.134;15.344;2022-11-03T07:09:12;11.43;;;8.88;;
12482;SDS011;6306;47.134;15.344;2022-11-03T07:11:43;11.40;;;9.20;;
12482;SDS011;6306;47.134;15.344;2022-11-03T07:19:05;8.23;;;7.00;;
12482;SDS011;6306;47.134;15.344;2022-11-03T07:21:47;9.67;;;7.03;;
12482;SDS011;6306;47.134;15.344;2022-11-03T07:26:43;10.30;;;6.17;;
12482;SDS011;6306;47.134;15.344;2022-11-03T07:29:11;7.63;;;6.37;;
12482;SDS011;6306;47.134;15.344;2022-11-03T07:31:39;7.80;;;6.53;;
12482;SDS011;6306;47.134;15.344;2022-11-03T07:34:08;11.30;;;6.23;;
12482;SDS011;6306;47.134;15.344;2022-11-03T07:36:35;6.47;;;5.23;;
12482;SDS011;6306;47.134;15.344;2022-11-03T07:39:01;9.17;;;6.33;;
12482;SDS011;6306;47.134;15.344;2022-11-03T07:41:28;9.53;;;6.87;;
12482;SDS011;6306;47.134;15.344;2022-11-03T07:43:56;8.97;;;6.97;;
12482;SDS011;6306;47.134;15.344;2022-11-03T07:46:23;11.90;;;5.83;;
12482;SDS011;6306;47.134;15.344;2022-11-03T07:48:56;15.30;;;7.33;;
12482;SDS011;6306;47.134;15.344;2022-11-03T07:51:24;12.70;;;7.17;;
12482;SDS011;6306;47.134;15.344;2022-11-03T07:54:01;8.60;;;5.80;;
12482;SDS011;6306;47.134;15.344;2022-11-03T07:56:31;10.10;;;7.80;;
12482;SDS011;6306;47.134;15.344;2022-11-03T07:59:21;10.63;;;6.80;;
12482;SDS011;6306;47.134;15.344;2022-11-03T08:01:46;7.43;;;5.47;;
12482;SDS011;6306;47.134;15.344;2022-11-03T08:04:16;7.73;;;6.00;;
12482;SDS011;6306;47.134;15.344;2022-11-03T08:06:43;7.30;;;5.77;;
12482;SDS011;6306;47.134;15.344;2022-11-03T08:09:10;9.47;;;6.87;;
12482;SDS011;6306;47.134;15.344;2022-11-03T08:11:36;11.73;;;6.93;;
12482;SDS011;6306;47.134;15.344;2022-11-03T08:14:02;10.43;;;5.90;;
12482;SDS011;6306;47.134;15.344;2022-11-03T08:16:28;8.97;;;7.10;;
12482;SDS011;6306;47.134;15.344;2022-11-03T08:18:54;15.57;;;7.03;;
12482;SDS011;6306;47.134;15.344;2022-11-03T08:21:20;7.83;;;6.47;;
12482;SDS011;6306;47.134;15.344;2022-11-03T08:23:46;10.90;;;7.50;;
12482;SDS011;6306;47.134;15.344;2022-11-03T08:26:12;9.50;;;8.50;;
12482;SDS011;6306;47.134;15.344;2022-11-03T08:28:38;13.37;;;7.33;;
12482;SDS011;6306;47.134;15.344;2022-11-03T08:31:04;11.10;;;7.37;;
12482;SDS011;6306;47.134;15.344;2022-11-03T08:33:31;14.23;;;8.03;;
12482;SDS011;6306;47.134;15.344;2022-11-03T08:35:57;13.43;;;8.80;;
12482;SDS011;6306;47.134;15.344;2022-11-03T08:38:23;17.07;;;8.50;;
12482;SDS011;6306;47.134;15.344;2022-11-03T08:40:49;11.63;;;8.67;;
12482;SDS011;6306;47.134;15.344;2022-11-03T08:43:15;9.00;;;6.60;;
12482;SDS011;6306;47.134;15.344;2022-11-03T08:45:41;7.63;;;6.40;;
12482;SDS011;6306;47.134;15.344;2022-11-03T08:48:07;8.70;;;6.27;;
12482;SDS011;6306;47.134;15.344;2022-11-03T08:50:33;12.33;;;7.57;;
12482;SDS011;6306;47.134;15.344;2022-11-03T08:52:59;19.10;;;9.93;;
12482;SDS011;6306;47.134;15.344;2022-11-03T08:55:25;13.07;;;8.37;;
12482;SDS011;6306;47.134;15.344;2022-11-03T08:57:51;8.63;;;6.53;;
12482;SDS011;6306;47.134;15.344;2022-11-03T09:00:17;10.30;;;5.90;;
12482;SDS011;6306;47.134;15.344;2022-11-03T09:02:43;12.07;;;6.47;;
12482;SDS011;6306;47.134;15.344;2022-11-03T09:05:10;8.90;;;6.13;;
12482;SDS011;6306;47.134;15.344;2022-11-03T09:07:37;11.10;;;6.80;;
12482;SDS011;6306;47.134;15.344;2022-11-03T09:10:04;11.33;;;5.57;;
12482;SDS011;6306;47.134;15.344;2022-11-03T09:12:31;7.37;;;5.00;;
12482;SDS011;6306;47.134;15.344;2022-11-03T09:14:57;6.40;;;4.93;;
12482;SDS011;6306;47.134;15.344;2022-11-03T09:17:23;8.97;;;4.13;;
12482;SDS011;6306;47.134;15.344;2022-11-03T09:19:49;5.93;;;5.07;;
12482;SDS011;6306;47.134;15.344;2022-11-03T09:22:15;4.93;;;3.80;;
12482;SDS011;6306;47.134;15.344;2022-11-03T09:24:41;5.50;;;4.33;;
12482;SDS011;6306;47.134;15.344;2022-11-03T09:27:07;7.07;;;4.00;;
12482;SDS011;6306;47.134;15.344;2022-11-03T09:29:33;6.00;;;5.37;;
12482;SDS011;6306;47.134;15.344;2022-11-03T09:31:59;10.07;;;5.60;;
12482;SDS011;6306;47.134;15.344;2022-11-03T09:34:25;6.03;;;4.93;;
12482;SDS011;6306;47.134;15.344;2022-11-03T09:36:51;4.23;;;3.70;;
12482;SDS011;6306;47.134;15.344;2022-11-03T09:39:17;9.17;;;5.13;;
12482;SDS011;6306;47.134;15.344;2022-11-03T09:41:43;7.60;;;3.97;;
12482;SDS011;6306;47.134;15.344;2022-11-03T09:44:09;5.33;;;3.57;;
12482;SDS011;6306;47.134;15.344;2022-11-03T09:46:36;8.40;;;4.47;;
12482;SDS011;6306;47.134;15.344;2022-11-03T09:49:03;10.87;;;5.50;;
12482;SDS011;6306;47.134;15.344;2022-11-03T09:51:29;4.07;;;3.20;;
12482;SDS011;6306;47.134;15.344;2022-11-03T09:53:58;8.47;;;4.30;;
12482;SDS011;6306;47.134;15.344;2022-11-03T09:56:26;4.13;;;2.53;;
12482;SDS011;6306;47.134;15.344;2022-11-03T09:58:52;7.53;;;3.70;;
12482;SDS011;6306;47.134;15.344;2022-11-03T10:01:18;4.47;;;2.80;;
12482;SDS011;6306;47.134;15.344;2022-11-03T10:03:44;12.60;;;4.87;;
12482;SDS011;6306;47.134;15.344;2022-11-03T10:06:10;4.40;;;3.23;;
12482;SDS011;6306;47.134;15.344;2022-11-03T10:08:37;3.80;;;2.90;;
12482;SDS011;6306;47.134;15.344;2022-11-03T10:11:03;4.00;;;2.57;;
12482;SDS011;6306;47.134;15.344;2022-11-03T10:16:01;8.83;;;3.37;;
12482;SDS011;6306;47.134;15.344;2022-11-03T10:18:29;6.13;;;3.27;;
12482;SDS011;6306;47.134;15.344;2022-11-03T10:20:55;6.00;;;2.70;;
12482;SDS011;6306;47.134;15.344;2022-11-03T10:23:23;5.73;;;3.20;;
12482;SDS011;6306;47.134;15.344;2022-11-03T10:25:49;5.03;;;3.57;;
12482;SDS011;6306;47.134;15.344;2022-11-03T10:28:22;6.10;;;3.10;;
12482;SDS011;6306;47.134;15.344;2022-11-03T10:33:24;7.27;;;3.43;;
12482;SDS011;6306;47.134;15.344;2022-11-03T10:35:50;5.50;;;3.03;;
12482;SDS011;6306;47.134;15.344;2022-11-03T10:38:29;4.43;;;3.70;;
12482;SDS011;6306;47.134;15.344;2022-11-03T10:40:58;6.50;;;2.90;;
12482;SDS011;6306;47.134;15.344;2022-11-03T10:43:34;5.93;;;3.57;;
12482;SDS011;6306;47.134;15.344;2022-11-03T10:46:10;9.63;;;3.77;;
12482;SDS011;6306;47.134;15.344;2022-11-03T10:48:36;5.17;;;3.20;;
12482;SDS011;6306;47.134;15.344;2022-11-03T10:51:03;7.10;;;3.23;;
12482;SDS011;6306;47.134;15.344;2022-11-03T10:53:29;8.90;;;3.53;;
12482;SDS011;6306;47.134;15.344;2022-11-03T10:55:55;7.30;;;3.40;;
12482;SDS011;6306;47.134;15.344;2022-11-03T10:58:22;4.03;;;2.63;;
12482;SDS011;6306;47.134;15.344;2022-11-03T11:00:48;3.67;;;3.30;;
12482;SDS011;6306;47.134;15.344;2022-11-03T11:03:14;5.70;;;5.10;;
12482;SDS011;6306;47.134;15.344;2022-11-03T11:05:43;4.83;;;2.90;;
12482;SDS011;6306;47.134;15.344;2022-11-03T11:08:10;7.53;;;3.63;;
12482;SDS011;6306;47.134;15.344;2022-11-03T11:10:36;6.93;;;3.47;;
12482;SDS011;6306;47.134;15.344;2022-11-03T11:15:43;7.63;;;3.63;;
12482;SDS011;6306;47.134;15.344;2022-11-03T11:18:10;5.30;;;3.20;;
12482;SDS011;6306;47.134;15.344;2022-11-03T11:20:56;7.43;;;2.90;;
12482;SDS011;6306;47.134;15.344;2022-11-03T11:23:41;3.63;;;3.23;;
12482;SDS011;6306;47.134;15.344;2022-11-03T11:28:38;4.10;;;3.77;;
12482;SDS011;6306;47.134;15.344;2022-11-03T11:33:49;3.90;;;2.23;;
12482;SDS011;6306;47.134;15.344;2022-11-03T11:36:19;4.60;;;3.93;;
12482;SDS011;6306;47.134;15.344;2022-11-03T11:41:19;8.03;;;4.90;;
12482;SDS011;6306;47.134;15.344;2022-11-03T11:43:45;10.80;;;3.00;;
12482;SDS011;6306;47.134;15.344;2022-11-03T11:51:22;3.97;;;2.37;;
12482;SDS011;6306;47.134;15.344;2022-11-03T11:53:49;5.80;;;3.40;;
12482;SDS011;6306;47.134;15.344;2022-11-03T11:56:15;3.83;;;3.03;;
12482;SDS011;6306;47.134;15.344;2022-11-03T11:58:48;5.80;;;3.20;;
12482;SDS011;6306;47.134;15.344;2022-11-03T12:01:31;6.43;;;2.90;;
12482;SDS011;6306;47.134;15.344;2022-11-03T12:04:12;8.47;;;3.27;;
12482;SDS011;6306;47.134;15.344;2022-11-03T12:06:40;6.00;;;3.10;;
12482;SDS011;6306;47.134;15.344;2022-11-03T12:16:52;12.57;;;3.60;;
12482;SDS011;6306;47.134;15.344;2022-11-03T12:22:07;5.53;;;3.33;;
12482;SDS011;6306;47.134;15.344;2022-11-03T12:27:00;4.57;;;3.43;;
12482;SDS011;6306;47.134;15.344;2022-11-03T12:29:27;8.70;;;4.10;;
12482;SDS011;6306;47.134;15.344;2022-11-03T12:31:53;6.40;;;2.90;;
12482;SDS011;6306;47.134;15.344;2022-11-03T12:34:19;5.33;;;3.50;;
12482;SDS011;6306;47.134;15.344;2022-11-03T12:36:46;5.20;;;3.60;;
12482;SDS011;6306;47.134;15.344;2022-11-03T12:39:12;3.63;;;2.90;;
12482;SDS011;6306;47.134;15.344;2022-11-03T12:41:38;4.40;;;3.33;;
12482;SDS011;6306;47.134;15.344;2022-11-03T12:44:04;4.80;;;3.03;;
12482;SDS011;6306;47.134;15.344;2022-11-03T12:46:30;3.70;;;3.20;;
12482;SDS011;6306;47.134;15.344;2022-11-03T12:48:56;7.87;;;3.70;;
12482;SDS011;6306;47.134;15.344;2022-11-03T12:51:22;8.53;;;2.90;;
12482;SDS011;6306;47.134;15.344;2022-11-03T12:53:49;8.27;;;4.67;;
12482;SDS011;6306;47.134;15.344;2022-11-03T12:56:15;5.70;;;3.73;;
12482;SDS011;6306;47.134;15.344;2022-11-03T12:58:42;7.10;;;4.60;;
12482;SDS011;6306;47.134;15.344;2022-11-03T13:01:08;4.73;;;3.40;;
12482;SDS011;6306;47.134;15.344;2022-11-03T13:03:34;7.13;;;4.30;;
12482;SDS011;6306;47.134;15.344;2022-11-03T13:06:01;5.87;;;3.83;;
12482;SDS011;6306;47.134;15.344;2022-11-03T13:08:28;5.43;;;3.80;;
12482;SDS011;6306;47.134;15.344;2022-11-03T13:10:54;5.63;;;3.50;;
12482;SDS011;6306;47.134;15.344;2022-11-03T13:13:21;3.53;;;2.87;;
12482;SDS011;6306;47.134;15.344;2022-11-03T13:15:47;7.03;;;3.40;;
12482;SDS011;6306;47.134;15.344;2022-11-03T13:18:13;5.60;;;4.10;;
12482;SDS011;6306;47.134;15.344;2022-11-03T13:20:39;3.40;;;2.80;;
12482;SDS011;6306;47.134;15.344;2022-11-03T13:23:05;4.33;;;3.43;;
12482;SDS011;6306;47.134;15.344;2022-11-03T13:25:31;2.87;;;2.60;;
12482;SDS011;6306;47.134;15.344;2022-11-03T13:27:57;3.30;;;2.90;;
12482;SDS011;6306;47.134;15.344;2022-11-03T13:30:24;4.43;;;3.77;;
12482;SDS011;6306;47.134;15.344;2022-11-03T13:32:50;6.57;;;3.90;;
12482;SDS011;6306;47.134;15.344;2022-11-03T13:35:17;4.23;;;3.83;;
12482;SDS011;6306;47.134;15.344;2022-11-03T13:37:43;3.67;;;2.70;;
12482;SDS011;6306;47.134;15.344;2022-11-03T13:40:10;4.43;;;3.37;;
12482;SDS011;6306;47.134;15.344;2022-11-03T13:42:36;9.20;;;3.30;;
12482;SDS011;6306;47.134;15.344;2022-11-03T13:45:03;4.23;;;3.07;;
12482;SDS011;6306;47.134;15.344;2022-11-03T13:47:29;7.73;;;3.93;;
12482;SDS011;6306;47.134;15.344;2022-11-03T13:49:55;3.50;;;2.90;;
12482;SDS011;6306;47.134;15.344;2022-11-03T13:52:21;3.77;;;2.87;;
12482;SDS011;6306;47.134;15.344;2022-11-03T13:54:50;5.70;;;3.20;;
12482;SDS011;6306;47.134;15.344;2022-11-03T13:57:16;3.13;;;2.27;;
12482;SDS011;6306;47.134;15.344;2022-11-03T13:59:42;3.57;;;3.27;;
12482;SDS011;6306;47.134;15.344;2022-11-03T14:02:08;6.40;;;4.20;;
12482;SDS011;6306;47.134;15.344;2022-11-03T14:04:35;3.47;;;3.17;;
12482;SDS011;6306;47.134;15.344;2022-11-03T14:07:02;3.00;;;2.70;;
12482;SDS011;6306;47.134;15.344;2022-11-03T14:09:28;6.60;;;3.93;;
12482;SDS011;6306;47.134;15.344;2022-11-03T14:11:54;4.37;;;2.60;;
12482;SDS011;6306;47.134;15.344;2022-11-03T14:14:39;4.70;;;4.30;;
12482;SDS011;6306;47.134;15.344;2022-11-03T14:17:05;12.73;;;4.03;;
12482;SDS011;6306;47.134;15.344;2022-11-03T14:19:31;6.23;;;3.40;;
12482;SDS011;6306;47.134;15.344;2022-11-03T14:21:57;4.73;;;3.87;;
12482;SDS011;6306;47.134;15.344;2022-11-03T14:24:23;4.50;;;3.70;;
12482;SDS011;6306;47.134;15.344;2022-11-03T14:26:49;7.67;;;3.30;;
12482;SDS011;6306;47.134;15.344;2022-11-03T14:29:15;3.87;;;3.33;;
12482;SDS011;6306;47.134;15.344;2022-11-03T14:31:41;9.20;;;3.93;;
12482;SDS011;6306;47.134;15.344;2022-11-03T14:34:07;9.30;;;4.80;;
12482;SDS011;6306;47.134;15.344;2022-11-03T14:36:33;5.23;;;3.80;;
12482;SDS011;6306;47.134;15.344;2022-11-03T14:38:59;5.20;;;3.33;;
12482;SDS011;6306;47.134;15.344;2022-11-03T14:41:25;6.07;;;4.03;;
12482;SDS011;6306;47.134;15.344;2022-11-03T14:44:10;6.80;;;3.83;;
12482;SDS011;6306;47.134;15.344;2022-11-03T14:46:36;5.43;;;3.47;;
12482;SDS011;6306;47.134;15.344;2022-11-03T14:49:02;5.33;;;3.90;;
12482;SDS011;6306;47.134;15.344;2022-11-03T14:51:28;7.13;;;4.13;;
12482;SDS011;6306;47.134;15.344;2022-11-03T14:53:55;7.00;;;3.80;;
12482;SDS011;6306;47.134;15.344;2022-11-03T14:56:22;6.20;;;3.13;;
12482;SDS011;6306;47.134;15.344;2022-11-03T14:58:48;6.80;;;3.90;;
12482;SDS011;6306;47.134;15.344;2022-11-03T15:01:14;6.40;;;3.37;;
12482;SDS011;6306;47.134;15.344;2022-11-03T15:03:40;5.40;;;4.10;;
12482;SDS011;6306;47.134;15.344;2022-11-03T15:06:07;5.33;;;3.60;;
12482;SDS011;6306;47.134;15.344;2022-11-03T15:08:33;9.00;;;4.37;;
12482;SDS011;6306;47.134;15.344;2022-11-03T15:10:59;8.17;;;4.33;;
12482;SDS011;6306;47.134;15.344;2022-11-03T15:13:25;5.17;;;3.87;;
12482;SDS011;6306;47.134;15.344;2022-11-03T15:15:51;6.00;;;4.93;;
12482;SDS011;6306;47.134;15.344;2022-11-03T15:18:18;7.07;;;4.63;;
12482;SDS011;6306;47.134;15.344;2022-11-03T15:20:44;8.77;;;4.40;;
12482;SDS011;6306;47.134;15.344;2022-11-03T15:23:10;15.60;;;5.77;;
12482;SDS011;6306;47.134;15.344;2022-11-03T15:25:36;10.67;;;6.00;;
12482;SDS011;6306;47.134;15.344;2022-11-03T15:28:02;14.70;;;7.77;;
12482;SDS011;6306;47.134;15.344;2022-11-03T15:30:28;9.70;;;6.00;;
12482;SDS011;6306;47.134;15.344;2022-11-03T15:32:54;8.27;;;6.07;;
12482;SDS011;6306;47.134;15.344;2022-11-03T15:35:21;8.63;;;6.10;;
12482;SDS011;6306;47.134;15.344;2022-11-03T15:37:47;12.43;;;6.63;;
12482;SDS011;6306;47.134;15.344;2022-11-03T15:40:14;8.90;;;6.17;;
12482;SDS011;6306;47.134;15.344;2022-11-03T15:42:40;8.53;;;5.73;;
12482;SDS011;6306;47.134;15.344;2022-11-03T15:45:08;10.03;;;6.53;;
12482;SDS011;6306;47.134;15.344;2022-11-03T15:47:34;11.13;;;6.70;;
12482;SDS011;6306;47.134;15.344;2022-11-03T15:50:00;8.33;;;6.70;;
12482;SDS011;6306;47.134;15.344;2022-11-03T15:52:26;10.40;;;5.60;;
12482;SDS011;6306;47.134;15.344;2022-11-03T15:54:52;17.63;;;6.50;;